sensor_id;sensor_type;location;lat;lon;timestamp;temperature;humidity
41471;DHT22;27211;51.220;5.308;2022-07-04T00:04:00;14.90;99.90
41471;DHT22;27211;51.220;5.308;2022-07-04T00:06:48;14.70;99.90
41471;DHT22;27211;51.220;5.308;2022-07-04T00:19:26;14.40;99.90
41471;DHT22;27211;51.220;5.308;2022-07-04T00:25:37;14.50;99.90
41471;DHT22;27211;51.220;5.308;2022-07-04T00:28:18;14.50;99.90
41471;DHT22;27211;51.220;5.308;2022-07-04T00:31:26;14.40;99.90
41471;DHT22;27211;51.220;5.308;2022-07-04T00:34:23;14.50;99.90
41471;DHT22;27211;51.220;5.308;2022-07-04T00:37:31;14.50;99.90
41471;DHT22;27211;51.220;5.308;2022-07-04T00:47:29;14.30;99.90
41471;DHT22;27211;51.220;5.308;2022-07-04T00:50:42;14.40;99.90
41471;DHT22;27211;51.220;5.308;2022-07-04T01:00:49;14.20;99.90
41471;DHT22;27211;51.220;5.308;2022-07-04T01:04:17;14.20;99.90
41471;DHT22;27211;51.220;5.308;2022-07-04T01:23:08;13.90;99.90
41471;DHT22;27211;51.220;5.308;2022-07-04T01:29:51;13.90;99.90
41471;DHT22;27211;51.220;5.308;2022-07-04T01:32:48;13.80;99.90
41471;DHT22;27211;51.220;5.308;2022-07-04T01:43:01;13.70;99.90
41471;DHT22;27211;51.220;5.308;2022-07-04T01:49:28;13.60;99.90
41471;DHT22;27211;51.220;5.308;2022-07-04T01:52:14;13.60;99.90
41471;DHT22;27211;51.220;5.308;2022-07-04T01:54:41;13.60;99.90
41471;DHT22;27211;51.220;5.308;2022-07-04T01:57:07;13.70;99.90
41471;DHT22;27211;51.220;5.308;2022-07-04T01:59:53;13.70;99.90
41471;DHT22;27211;51.220;5.308;2022-07-04T02:02:37;13.70;99.90
41471;DHT22;27211;51.220;5.308;2022-07-04T02:05:04;13.70;99.90
41471;DHT22;27211;51.220;5.308;2022-07-04T02:07:50;13.70;99.90
41471;DHT22;27211;51.220;5.308;2022-07-04T02:10:36;13.80;99.90
41471;DHT22;27211;51.220;5.308;2022-07-04T02:13:02;13.80;99.90
41471;DHT22;27211;51.220;5.308;2022-07-04T02:15:39;13.80;99.90
41471;DHT22;27211;51.220;5.308;2022-07-04T02:18:08;13.80;99.90
41471;DHT22;27211;51.220;5.308;2022-07-04T02:20:54;13.80;99.90
41471;DHT22;27211;51.220;5.308;2022-07-04T02:23:19;13.70;99.90
41471;DHT22;27211;51.220;5.308;2022-07-04T02:26:01;14.00;99.90
41471;DHT22;27211;51.220;5.308;2022-07-04T02:28:27;14.10;99.90
41471;DHT22;27211;51.220;5.308;2022-07-04T02:30:53;14.10;99.90
41471;DHT22;27211;51.220;5.308;2022-07-04T02:33:19;14.00;99.90
41471;DHT22;27211;51.220;5.308;2022-07-04T02:35:45;13.80;99.90
41471;DHT22;27211;51.220;5.308;2022-07-04T02:38:10;13.60;99.90
41471;DHT22;27211;51.220;5.308;2022-07-04T02:40:37;13.60;99.90
41471;DHT22;27211;51.220;5.308;2022-07-04T02:43:03;13.70;99.90
41471;DHT22;27211;51.220;5.308;2022-07-04T02:45:29;13.60;99.90
41471;DHT22;27211;51.220;5.308;2022-07-04T02:47:55;13.50;99.90
41471;DHT22;27211;51.220;5.308;2022-07-04T02:50:20;13.50;99.90
41471;DHT22;27211;51.220;5.308;2022-07-04T02:52:46;13.40;99.90
41471;DHT22;27211;51.220;5.308;2022-07-04T02:55:12;13.40;99.90
41471;DHT22;27211;51.220;5.308;2022-07-04T02:57:38;13.40;99.90
41471;DHT22;27211;51.220;5.308;2022-07-04T03:00:04;13.40;99.90
41471;DHT22;27211;51.220;5.308;2022-07-04T03:02:30;13.50;99.90
41471;DHT22;27211;51.220;5.308;2022-07-04T03:04:56;14.20;99.90
41471;DHT22;27211;51.220;5.308;2022-07-04T03:07:22;14.30;99.90
41471;DHT22;27211;51.220;5.308;2022-07-04T03:09:48;14.20;99.90
41471;DHT22;27211;51.220;5.308;2022-07-04T03:12:14;14.10;99.90
41471;DHT22;27211;51.220;5.308;2022-07-04T03:14:40;13.80;99.90
41471;DHT22;27211;51.220;5.308;2022-07-04T03:17:07;13.60;99.90
41471;DHT22;27211;51.220;5.308;2022-07-04T03:19:32;13.60;99.90
41471;DHT22;27211;51.220;5.308;2022-07-04T03:21:58;13.50;99.90
41471;DHT22;27211;51.220;5.308;2022-07-04T03:24:24;13.50;99.90
41471;DHT22;27211;51.220;5.308;2022-07-04T03:26:50;13.50;99.90
41471;DHT22;27211;51.220;5.308;2022-07-04T03:29:15;13.50;99.90
41471;DHT22;27211;51.220;5.308;2022-07-04T03:31:42;13.60;99.90
41471;DHT22;27211;51.220;5.308;2022-07-04T03:34:07;13.60;99.90
41471;DHT22;27211;51.220;5.308;2022-07-04T03:36:33;13.70;99.90
41471;DHT22;27211;51.220;5.308;2022-07-04T03:38:59;13.70;99.90
41471;DHT22;27211;51.220;5.308;2022-07-04T03:41:25;13.70;99.90
41471;DHT22;27211;51.220;5.308;2022-07-04T03:43:51;13.70;99.90
41471;DHT22;27211;51.220;5.308;2022-07-04T03:46:17;13.60;99.90
41471;DHT22;27211;51.220;5.308;2022-07-04T03:48:44;13.50;99.90
41471;DHT22;27211;51.220;5.308;2022-07-04T03:51:11;13.60;99.90
41471;DHT22;27211;51.220;5.308;2022-07-04T03:53:37;13.80;99.90
41471;DHT22;27211;51.220;5.308;2022-07-04T03:56:04;13.70;99.90
41471;DHT22;27211;51.220;5.308;2022-07-04T03:58:30;13.80;99.90
41471;DHT22;27211;51.220;5.308;2022-07-04T04:00:56;13.80;99.90
41471;DHT22;27211;51.220;5.308;2022-07-04T04:03:23;14.00;99.90
41471;DHT22;27211;51.220;5.308;2022-07-04T04:06:07;14.00;99.90
41471;DHT22;27211;51.220;5.308;2022-07-04T04:08:33;14.00;99.90
41471;DHT22;27211;51.220;5.308;2022-07-04T04:11:02;14.00;99.90
41471;DHT22;27211;51.220;5.308;2022-07-04T04:13:27;14.00;99.90
41471;DHT22;27211;51.220;5.308;2022-07-04T04:15:53;14.00;99.90
41471;DHT22;27211;51.220;5.308;2022-07-04T04:18:20;14.00;99.90
41471;DHT22;27211;51.220;5.308;2022-07-04T04:20:45;14.20;99.90
41471;DHT22;27211;51.220;5.308;2022-07-04T04:23:20;14.20;99.90
41471;DHT22;27211;51.220;5.308;2022-07-04T04:25:46;14.10;99.90
41471;DHT22;27211;51.220;5.308;2022-07-04T04:28:12;14.10;99.90
41471;DHT22;27211;51.220;5.308;2022-07-04T04:30:37;14.10;99.90
41471;DHT22;27211;51.220;5.308;2022-07-04T04:33:03;14.20;99.90
41471;DHT22;27211;51.220;5.308;2022-07-04T04:35:29;14.20;99.90
41471;DHT22;27211;51.220;5.308;2022-07-04T04:37:55;14.00;99.90
41471;DHT22;27211;51.220;5.308;2022-07-04T04:40:20;14.00;99.90
41471;DHT22;27211;51.220;5.308;2022-07-04T04:42:46;14.00;99.90
41471;DHT22;27211;51.220;5.308;2022-07-04T04:45:12;13.90;99.90
41471;DHT22;27211;51.220;5.308;2022-07-04T04:47:38;14.10;99.90
41471;DHT22;27211;51.220;5.308;2022-07-04T04:50:03;14.10;99.90
41471;DHT22;27211;51.220;5.308;2022-07-04T04:52:29;14.20;99.90
41471;DHT22;27211;51.220;5.308;2022-07-04T04:54:56;14.40;99.90
41471;DHT22;27211;51.220;5.308;2022-07-04T04:57:22;14.40;99.90
41471;DHT22;27211;51.220;5.308;2022-07-04T04:59:48;14.60;99.90
41471;DHT22;27211;51.220;5.308;2022-07-04T05:02:13;14.60;99.90
41471;DHT22;27211;51.220;5.308;2022-07-04T05:04:39;14.70;99.90
41471;DHT22;27211;51.220;5.308;2022-07-04T05:07:05;14.90;99.90
41471;DHT22;27211;51.220;5.308;2022-07-04T05:09:31;15.00;99.90
41471;DHT22;27211;51.220;5.308;2022-07-04T05:11:56;14.90;99.90
41471;DHT22;27211;51.220;5.308;2022-07-04T05:14:23;15.10;99.90
41471;DHT22;27211;51.220;5.308;2022-07-04T05:16:48;15.20;99.90
41471;DHT22;27211;51.220;5.308;2022-07-04T05:19:15;15.40;99.90
41471;DHT22;27211;51.220;5.308;2022-07-04T05:21:43;15.40;99.90
41471;DHT22;27211;51.220;5.308;2022-07-04T05:24:09;15.60;99.90
41471;DHT22;27211;51.220;5.308;2022-07-04T05:26:36;15.80;99.90
41471;DHT22;27211;51.220;5.308;2022-07-04T05:29:02;15.80;99.90
41471;DHT22;27211;51.220;5.308;2022-07-04T05:31:28;16.00;99.90
41471;DHT22;27211;51.220;5.308;2022-07-04T05:33:55;16.00;99.90
41471;DHT22;27211;51.220;5.308;2022-07-04T05:36:22;15.90;99.90
41471;DHT22;27211;51.220;5.308;2022-07-04T05:38:48;16.00;99.90
41471;DHT22;27211;51.220;5.308;2022-07-04T05:41:15;16.30;99.90
41471;DHT22;27211;51.220;5.308;2022-07-04T05:43:41;16.60;99.90
41471;DHT22;27211;51.220;5.308;2022-07-04T05:46:07;16.70;99.90
41471;DHT22;27211;51.220;5.308;2022-07-04T05:48:36;16.70;99.90
41471;DHT22;27211;51.220;5.308;2022-07-04T05:51:03;17.00;99.90
41471;DHT22;27211;51.220;5.308;2022-07-04T05:53:29;17.10;99.90
41471;DHT22;27211;51.220;5.308;2022-07-04T05:55:55;17.60;99.90
41471;DHT22;27211;51.220;5.308;2022-07-04T05:58:20;18.00;99.90
41471;DHT22;27211;51.220;5.308;2022-07-04T06:00:47;18.20;99.90
41471;DHT22;27211;51.220;5.308;2022-07-04T06:03:12;18.70;99.90
41471;DHT22;27211;51.220;5.308;2022-07-04T06:05:38;18.80;99.90
41471;DHT22;27211;51.220;5.308;2022-07-04T06:08:04;19.20;99.90
41471;DHT22;27211;51.220;5.308;2022-07-04T06:10:30;19.30;99.90
41471;DHT22;27211;51.220;5.308;2022-07-04T06:12:57;19.20;99.90
41471;DHT22;27211;51.220;5.308;2022-07-04T06:15:22;19.40;99.90
41471;DHT22;27211;51.220;5.308;2022-07-04T06:17:48;19.80;99.90
41471;DHT22;27211;51.220;5.308;2022-07-04T06:20:14;20.00;99.90
41471;DHT22;27211;51.220;5.308;2022-07-04T06:22:47;20.30;99.90
41471;DHT22;27211;51.220;5.308;2022-07-04T06:25:16;20.60;99.90
41471;DHT22;27211;51.220;5.308;2022-07-04T06:27:44;20.90;99.90
41471;DHT22;27211;51.220;5.308;2022-07-04T06:30:11;21.10;99.90
41471;DHT22;27211;51.220;5.308;2022-07-04T06:32:59;21.40;99.90
41471;DHT22;27211;51.220;5.308;2022-07-04T06:35:30;21.30;99.90
41471;DHT22;27211;51.220;5.308;2022-07-04T06:38:13;21.50;99.90
41471;DHT22;27211;51.220;5.308;2022-07-04T06:40:40;22.10;99.90
41471;DHT22;27211;51.220;5.308;2022-07-04T06:43:06;21.90;99.90
41471;DHT22;27211;51.220;5.308;2022-07-04T06:45:32;21.80;99.90
41471;DHT22;27211;51.220;5.308;2022-07-04T06:48:03;21.70;99.90
41471;DHT22;27211;51.220;5.308;2022-07-04T06:50:30;22.10;99.90
41471;DHT22;27211;51.220;5.308;2022-07-04T06:53:00;22.00;99.90
41471;DHT22;27211;51.220;5.308;2022-07-04T06:55:30;22.70;99.90
41471;DHT22;27211;51.220;5.308;2022-07-04T06:57:56;22.60;99.90
41471;DHT22;27211;51.220;5.308;2022-07-04T07:00:22;23.20;99.90
41471;DHT22;27211;51.220;5.308;2022-07-04T07:02:49;23.10;99.90
41471;DHT22;27211;51.220;5.308;2022-07-04T07:05:14;22.90;99.90
41471;DHT22;27211;51.220;5.308;2022-07-04T07:07:40;23.30;99.90
41471;DHT22;27211;51.220;5.308;2022-07-04T07:10:07;23.60;99.90
41471;DHT22;27211;51.220;5.308;2022-07-04T07:12:33;24.00;99.90
41471;DHT22;27211;51.220;5.308;2022-07-04T07:15:00;24.40;99.90
41471;DHT22;27211;51.220;5.308;2022-07-04T07:17:26;24.20;99.90
41471;DHT22;27211;51.220;5.308;2022-07-04T07:19:52;24.00;99.90
41471;DHT22;27211;51.220;5.308;2022-07-04T07:22:18;23.90;99.90
41471;DHT22;27211;51.220;5.308;2022-07-04T07:24:44;23.70;99.90
41471;DHT22;27211;51.220;5.308;2022-07-04T07:27:10;23.80;99.90
41471;DHT22;27211;51.220;5.308;2022-07-04T07:29:37;24.20;99.90
41471;DHT22;27211;51.220;5.308;2022-07-04T07:32:04;24.50;99.90
41471;DHT22;27211;51.220;5.308;2022-07-04T07:34:30;25.00;99.90
41471;DHT22;27211;51.220;5.308;2022-07-04T07:36:56;25.00;99.90
41471;DHT22;27211;51.220;5.308;2022-07-04T07:39:22;25.40;98.80
41471;DHT22;27211;51.220;5.308;2022-07-04T07:41:49;25.70;98.40
41471;DHT22;27211;51.220;5.308;2022-07-04T07:44:15;26.60;96.60
41471;DHT22;27211;51.220;5.308;2022-07-04T07:46:41;26.50;96.80
41471;DHT22;27211;51.220;5.308;2022-07-04T07:49:06;26.80;95.80
41471;DHT22;27211;51.220;5.308;2022-07-04T07:51:32;26.20;96.20
41471;DHT22;27211;51.220;5.308;2022-07-04T07:53:59;25.70;96.80
41471;DHT22;27211;51.220;5.308;2022-07-04T07:56:25;25.90;96.70
41471;DHT22;27211;51.220;5.308;2022-07-04T07:58:52;25.80;96.40
41471;DHT22;27211;51.220;5.308;2022-07-04T08:01:18;25.90;96.30
41471;DHT22;27211;51.220;5.308;2022-07-04T08:03:44;25.70;96.30
41471;DHT22;27211;51.220;5.308;2022-07-04T08:06:42;25.80;96.10
41471;DHT22;27211;51.220;5.308;2022-07-04T08:09:08;26.00;95.20
41471;DHT22;27211;51.220;5.308;2022-07-04T08:11:34;25.90;95.60
41471;DHT22;27211;51.220;5.308;2022-07-04T08:13:59;25.80;95.70
41471;DHT22;27211;51.220;5.308;2022-07-04T08:16:25;26.30;95.00
41471;DHT22;27211;51.220;5.308;2022-07-04T08:18:51;26.80;95.00
41471;DHT22;27211;51.220;5.308;2022-07-04T08:21:17;27.00;94.60
41471;DHT22;27211;51.220;5.308;2022-07-04T08:23:42;27.00;94.40
41471;DHT22;27211;51.220;5.308;2022-07-04T08:26:08;27.70;93.40
41471;DHT22;27211;51.220;5.308;2022-07-04T08:28:34;27.10;93.40
41471;DHT22;27211;51.220;5.308;2022-07-04T08:31:00;27.50;93.00
41471;DHT22;27211;51.220;5.308;2022-07-04T08:33:26;27.50;93.70
41471;DHT22;27211;51.220;5.308;2022-07-04T08:35:52;27.30;93.00
41471;DHT22;27211;51.220;5.308;2022-07-04T08:38:19;27.10;93.40
41471;DHT22;27211;51.220;5.308;2022-07-04T08:40:46;27.80;92.90
41471;DHT22;27211;51.220;5.308;2022-07-04T08:43:13;28.10;92.40
41471;DHT22;27211;51.220;5.308;2022-07-04T08:45:40;28.40;92.50
41471;DHT22;27211;51.220;5.308;2022-07-04T08:48:09;29.20;91.50
41471;DHT22;27211;51.220;5.308;2022-07-04T08:53:12;30.10;89.10
41471;DHT22;27211;51.220;5.308;2022-07-04T08:55:40;30.30;87.60
41471;DHT22;27211;51.220;5.308;2022-07-04T08:58:25;31.10;84.40
41471;DHT22;27211;51.220;5.308;2022-07-04T09:00:57;30.40;84.30
41471;DHT22;27211;51.220;5.308;2022-07-04T09:03:23;29.30;86.70
41471;DHT22;27211;51.220;5.308;2022-07-04T09:05:50;29.10;87.10
41471;DHT22;27211;51.220;5.308;2022-07-04T09:08:16;29.50;86.70
41471;DHT22;27211;51.220;5.308;2022-07-04T09:10:42;30.10;84.80
41471;DHT22;27211;51.220;5.308;2022-07-04T09:13:10;30.20;83.30
41471;DHT22;27211;51.220;5.308;2022-07-04T09:15:37;30.70;80.90
41471;DHT22;27211;51.220;5.308;2022-07-04T09:18:04;30.10;81.40
41471;DHT22;27211;51.220;5.308;2022-07-04T09:20:32;30.10;80.00
41471;DHT22;27211;51.220;5.308;2022-07-04T09:22:57;30.40;81.20
41471;DHT22;27211;51.220;5.308;2022-07-04T09:25:24;30.20;81.90
41471;DHT22;27211;51.220;5.308;2022-07-04T09:27:53;30.60;82.20
41471;DHT22;27211;51.220;5.308;2022-07-04T09:30:20;31.20;76.20
41471;DHT22;27211;51.220;5.308;2022-07-04T09:32:52;30.40;77.40
41471;DHT22;27211;51.220;5.308;2022-07-04T09:35:24;30.90;75.70
41471;DHT22;27211;51.220;5.308;2022-07-04T09:37:58;31.00;75.30
41471;DHT22;27211;51.220;5.308;2022-07-04T09:40:26;31.40;75.90
41471;DHT22;27211;51.220;5.308;2022-07-04T09:42:54;31.60;75.00
41471;DHT22;27211;51.220;5.308;2022-07-04T09:45:21;31.60;74.40
41471;DHT22;27211;51.220;5.308;2022-07-04T09:47:50;32.50;73.10
41471;DHT22;27211;51.220;5.308;2022-07-04T09:50:20;32.10;73.40
41471;DHT22;27211;51.220;5.308;2022-07-04T09:57:59;30.30;75.00
41471;DHT22;27211;51.220;5.308;2022-07-04T10:00:31;30.60;75.30
41471;DHT22;27211;51.220;5.308;2022-07-04T10:03:15;31.70;72.80
41471;DHT22;27211;51.220;5.308;2022-07-04T10:05:41;31.10;72.60
41471;DHT22;27211;51.220;5.308;2022-07-04T10:08:06;31.40;72.00
41471;DHT22;27211;51.220;5.308;2022-07-04T10:10:34;32.10;71.30
41471;DHT22;27211;51.220;5.308;2022-07-04T10:13:04;33.10;69.80
41471;DHT22;27211;51.220;5.308;2022-07-04T10:15:31;34.20;67.90
41471;DHT22;27211;51.220;5.308;2022-07-04T10:17:57;33.20;66.30
41471;DHT22;27211;51.220;5.308;2022-07-04T10:20:22;32.10;67.50
41471;DHT22;27211;51.220;5.308;2022-07-04T10:22:49;31.70;68.90
41471;DHT22;27211;51.220;5.308;2022-07-04T10:25:15;30.40;70.30
41471;DHT22;27211;51.220;5.308;2022-07-04T10:27:41;29.90;69.50
41471;DHT22;27211;51.220;5.308;2022-07-04T10:30:11;29.00;71.30
41471;DHT22;27211;51.220;5.308;2022-07-04T10:32:38;28.80;72.10
41471;DHT22;27211;51.220;5.308;2022-07-04T10:35:04;28.70;73.40
41471;DHT22;27211;51.220;5.308;2022-07-04T10:40:51;29.70;71.80
41471;DHT22;27211;51.220;5.308;2022-07-04T10:45:56;30.00;70.40
41471;DHT22;27211;51.220;5.308;2022-07-04T10:48:23;30.00;69.90
41471;DHT22;27211;51.220;5.308;2022-07-04T10:51:05;30.90;69.80
41471;DHT22;27211;51.220;5.308;2022-07-04T10:53:33;32.10;67.60
41471;DHT22;27211;51.220;5.308;2022-07-04T10:58:44;33.80;64.80
41471;DHT22;27211;51.220;5.308;2022-07-04T11:01:14;33.60;64.10
41471;DHT22;27211;51.220;5.308;2022-07-04T11:03:49;33.50;64.20
41471;DHT22;27211;51.220;5.308;2022-07-04T11:11:59;31.70;65.90
41471;DHT22;27211;51.220;5.308;2022-07-04T11:14:43;30.90;66.20
41471;DHT22;27211;51.220;5.308;2022-07-04T11:17:20;30.70;67.40
41471;DHT22;27211;51.220;5.308;2022-07-04T11:19:47;30.90;67.50
41471;DHT22;27211;51.220;5.308;2022-07-04T11:22:22;30.40;67.40
41471;DHT22;27211;51.220;5.308;2022-07-04T11:24:49;30.40;67.80
41471;DHT22;27211;51.220;5.308;2022-07-04T11:27:15;31.30;67.30
41471;DHT22;27211;51.220;5.308;2022-07-04T11:29:53;32.50;65.50
41471;DHT22;27211;51.220;5.308;2022-07-04T11:32:21;34.10;63.70
41471;DHT22;27211;51.220;5.308;2022-07-04T11:34:47;33.60;63.60
41471;DHT22;27211;51.220;5.308;2022-07-04T11:37:15;35.00;62.40
41471;DHT22;27211;51.220;5.308;2022-07-04T11:39:41;35.50;61.10
41471;DHT22;27211;51.220;5.308;2022-07-04T11:42:06;36.00;60.70
41471;DHT22;27211;51.220;5.308;2022-07-04T11:44:51;36.50;59.00
41471;DHT22;27211;51.220;5.308;2022-07-04T11:47:43;37.00;58.00
41471;DHT22;27211;51.220;5.308;2022-07-04T11:50:14;37.10;56.30
41471;DHT22;27211;51.220;5.308;2022-07-04T11:52:42;36.60;57.20
41471;DHT22;27211;51.220;5.308;2022-07-04T11:55:14;36.70;56.70
41471;DHT22;27211;51.220;5.308;2022-07-04T11:57:48;36.00;56.10
41471;DHT22;27211;51.220;5.308;2022-07-04T12:00:17;34.50;57.80
41471;DHT22;27211;51.220;5.308;2022-07-04T12:02:45;34.80;58.00
41471;DHT22;27211;51.220;5.308;2022-07-04T12:05:12;35.70;57.10
41471;DHT22;27211;51.220;5.308;2022-07-04T12:07:40;36.60;56.70
41471;DHT22;27211;51.220;5.308;2022-07-04T12:13:16;36.40;55.30
41471;DHT22;27211;51.220;5.308;2022-07-04T12:15:45;35.60;55.00
41471;DHT22;27211;51.220;5.308;2022-07-04T12:18:21;36.00;54.60
41471;DHT22;27211;51.220;5.308;2022-07-04T12:20:49;37.50;53.60
41471;DHT22;27211;51.220;5.308;2022-07-04T12:23:16;36.80;53.90
41471;DHT22;27211;51.220;5.308;2022-07-04T12:25:46;37.00;54.00
41471;DHT22;27211;51.220;5.308;2022-07-04T12:28:16;36.10;54.20
41471;DHT22;27211;51.220;5.308;2022-07-04T12:30:53;36.90;54.00
41471;DHT22;27211;51.220;5.308;2022-07-04T12:33:21;36.20;53.80
41471;DHT22;27211;51.220;5.308;2022-07-04T12:35:56;36.30;53.60
41471;DHT22;27211;51.220;5.308;2022-07-04T12:38:34;36.40;54.00
41471;DHT22;27211;51.220;5.308;2022-07-04T12:41:28;35.60;54.60
41471;DHT22;27211;51.220;5.308;2022-07-04T12:43:54;33.90;56.30
41471;DHT22;27211;51.220;5.308;2022-07-04T12:46:31;33.20;57.50
41471;DHT22;27211;51.220;5.308;2022-07-04T12:48:59;32.60;58.00
41471;DHT22;27211;51.220;5.308;2022-07-04T12:51:27;32.10;59.00
41471;DHT22;27211;51.220;5.308;2022-07-04T12:53:55;33.40;58.50
41471;DHT22;27211;51.220;5.308;2022-07-04T12:56:36;35.20;56.70
41471;DHT22;27211;51.220;5.308;2022-07-04T12:59:08;36.20;55.60
41471;DHT22;27211;51.220;5.308;2022-07-04T13:01:36;36.90;54.30
41471;DHT22;27211;51.220;5.308;2022-07-04T13:04:03;37.40;54.50
41471;DHT22;27211;51.220;5.308;2022-07-04T13:06:29;37.60;53.80
41471;DHT22;27211;51.220;5.308;2022-07-04T13:08:56;37.90;53.50
41471;DHT22;27211;51.220;5.308;2022-07-04T13:11:22;36.40;54.70
41471;DHT22;27211;51.220;5.308;2022-07-04T13:14:11;34.90;56.00
41471;DHT22;27211;51.220;5.308;2022-07-04T13:16:37;33.90;56.90
41471;DHT22;27211;51.220;5.308;2022-07-04T13:19:03;34.80;56.00
41471;DHT22;27211;51.220;5.308;2022-07-04T13:21:30;35.30;56.10
41471;DHT22;27211;51.220;5.308;2022-07-04T13:23:56;35.60;56.00
41471;DHT22;27211;51.220;5.308;2022-07-04T13:26:22;35.40;55.20
41471;DHT22;27211;51.220;5.308;2022-07-04T13:28:48;34.00;56.70
41471;DHT22;27211;51.220;5.308;2022-07-04T13:31:14;32.80;58.30
41471;DHT22;27211;51.220;5.308;2022-07-04T13:33:41;32.70;58.20
41471;DHT22;27211;51.220;5.308;2022-07-04T13:36:06;32.30;58.80
41471;DHT22;27211;51.220;5.308;2022-07-04T13:38:32;32.40;58.40
41471;DHT22;27211;51.220;5.308;2022-07-04T13:40:58;31.50;58.90
41471;DHT22;27211;51.220;5.308;2022-07-04T13:43:25;32.00;59.20
41471;DHT22;27211;51.220;5.308;2022-07-04T13:45:54;32.70;58.10
41471;DHT22;27211;51.220;5.308;2022-07-04T13:48:20;33.70;56.90
41471;DHT22;27211;51.220;5.308;2022-07-04T13:50:46;34.60;56.80
41471;DHT22;27211;51.220;5.308;2022-07-04T13:53:11;35.00;56.10
41471;DHT22;27211;51.220;5.308;2022-07-04T13:55:37;34.20;57.30
41471;DHT22;27211;51.220;5.308;2022-07-04T13:58:08;34.30;57.70
41471;DHT22;27211;51.220;5.308;2022-07-04T14:00:35;35.30;56.20
41471;DHT22;27211;51.220;5.308;2022-07-04T14:03:02;36.10;55.20
41471;DHT22;27211;51.220;5.308;2022-07-04T14:05:29;35.60;54.70
41471;DHT22;27211;51.220;5.308;2022-07-04T14:07:55;35.00;54.50
41471;DHT22;27211;51.220;5.308;2022-07-04T14:10:21;34.90;54.40
41471;DHT22;27211;51.220;5.308;2022-07-04T14:12:47;34.80;55.00
41471;DHT22;27211;51.220;5.308;2022-07-04T14:15:13;35.20;55.40
41471;DHT22;27211;51.220;5.308;2022-07-04T14:17:39;35.40;55.10
41471;DHT22;27211;51.220;5.308;2022-07-04T14:20:07;35.60;55.10
41471;DHT22;27211;51.220;5.308;2022-07-04T14:22:34;36.40;54.00
41471;DHT22;27211;51.220;5.308;2022-07-04T14:25:00;36.60;53.30
41471;DHT22;27211;51.220;5.308;2022-07-04T14:27:26;35.80;54.00
41471;DHT22;27211;51.220;5.308;2022-07-04T14:29:52;35.00;54.60
41471;DHT22;27211;51.220;5.308;2022-07-04T14:32:18;35.20;54.80
41471;DHT22;27211;51.220;5.308;2022-07-04T14:34:44;35.50;54.20
41471;DHT22;27211;51.220;5.308;2022-07-04T14:37:10;35.20;53.90
41471;DHT22;27211;51.220;5.308;2022-07-04T14:39:36;34.70;53.60
41471;DHT22;27211;51.220;5.308;2022-07-04T14:42:02;34.10;54.40
41471;DHT22;27211;51.220;5.308;2022-07-04T14:44:28;33.10;55.70
41471;DHT22;27211;51.220;5.308;2022-07-04T14:46:54;32.50;56.80
41471;DHT22;27211;51.220;5.308;2022-07-04T14:49:20;31.70;58.40
41471;DHT22;27211;51.220;5.308;2022-07-04T14:51:46;31.20;58.80
41471;DHT22;27211;51.220;5.308;2022-07-04T14:54:12;30.60;59.30
41471;DHT22;27211;51.220;5.308;2022-07-04T14:56:38;30.40;60.20
41471;DHT22;27211;51.220;5.308;2022-07-04T14:59:04;29.80;60.70
41471;DHT22;27211;51.220;5.308;2022-07-04T15:01:31;29.50;61.70
41471;DHT22;27211;51.220;5.308;2022-07-04T15:03:57;29.70;61.50
41471;DHT22;27211;51.220;5.308;2022-07-04T15:06:23;29.90;61.50
41471;DHT22;27211;51.220;5.308;2022-07-04T15:08:50;30.30;60.40
41471;DHT22;27211;51.220;5.308;2022-07-04T15:11:16;30.50;60.30
41471;DHT22;27211;51.220;5.308;2022-07-04T15:13:42;30.50;60.10
41471;DHT22;27211;51.220;5.308;2022-07-04T15:16:07;30.20;60.70
41471;DHT22;27211;51.220;5.308;2022-07-04T15:18:34;30.00;60.70
41471;DHT22;27211;51.220;5.308;2022-07-04T15:21:00;29.60;62.30
41471;DHT22;27211;51.220;5.308;2022-07-04T15:23:45;29.90;61.40
41471;DHT22;27211;51.220;5.308;2022-07-04T15:26:29;30.20;61.00
41471;DHT22;27211;51.220;5.308;2022-07-04T15:28:56;29.30;62.20
41471;DHT22;27211;51.220;5.308;2022-07-04T15:31:26;28.80;62.30
41471;DHT22;27211;51.220;5.308;2022-07-04T15:33:52;29.10;62.40
41471;DHT22;27211;51.220;5.308;2022-07-04T15:36:28;29.20;62.50
41471;DHT22;27211;51.220;5.308;2022-07-04T15:38:54;29.30;62.70
41471;DHT22;27211;51.220;5.308;2022-07-04T15:41:29;29.60;61.40
41471;DHT22;27211;51.220;5.308;2022-07-04T15:43:55;29.10;61.70
41471;DHT22;27211;51.220;5.308;2022-07-04T15:46:25;29.10;61.80
41471;DHT22;27211;51.220;5.308;2022-07-04T15:48:51;28.70;61.40
41471;DHT22;27211;51.220;5.308;2022-07-04T15:51:24;28.60;61.50
41471;DHT22;27211;51.220;5.308;2022-07-04T15:53:50;28.50;62.00
41471;DHT22;27211;51.220;5.308;2022-07-04T15:56:16;28.40;62.30
41471;DHT22;27211;51.220;5.308;2022-07-04T15:58:42;28.70;62.80
41471;DHT22;27211;51.220;5.308;2022-07-04T16:01:08;29.00;63.20
41471;DHT22;27211;51.220;5.308;2022-07-04T16:03:34;29.50;63.30
41471;DHT22;27211;51.220;5.308;2022-07-04T16:06:00;29.30;63.60
41471;DHT22;27211;51.220;5.308;2022-07-04T16:08:26;29.10;63.60
41471;DHT22;27211;51.220;5.308;2022-07-04T16:10:54;28.80;64.60
41471;DHT22;27211;51.220;5.308;2022-07-04T16:13:19;28.30;64.50
41471;DHT22;27211;51.220;5.308;2022-07-04T16:15:56;27.80;65.60
41471;DHT22;27211;51.220;5.308;2022-07-04T16:18:29;27.70;65.50
41471;DHT22;27211;51.220;5.308;2022-07-04T16:20:55;27.70;65.40
41471;DHT22;27211;51.220;5.308;2022-07-04T16:23:21;27.70;65.70
41471;DHT22;27211;51.220;5.308;2022-07-04T16:25:47;27.90;66.00
41471;DHT22;27211;51.220;5.308;2022-07-04T16:28:23;28.10;66.20
41471;DHT22;27211;51.220;5.308;2022-07-04T16:30:48;28.10;66.40
41471;DHT22;27211;51.220;5.308;2022-07-04T16:33:14;28.30;67.00
41471;DHT22;27211;51.220;5.308;2022-07-04T16:35:43;28.40;65.80
41471;DHT22;27211;51.220;5.308;2022-07-04T16:38:11;28.20;66.70
41471;DHT22;27211;51.220;5.308;2022-07-04T16:40:39;28.40;66.90
41471;DHT22;27211;51.220;5.308;2022-07-04T16:43:05;28.40;66.60
41471;DHT22;27211;51.220;5.308;2022-07-04T16:45:31;28.40;66.40
41471;DHT22;27211;51.220;5.308;2022-07-04T16:47:57;28.00;66.20
41471;DHT22;27211;51.220;5.308;2022-07-04T16:50:33;27.90;66.40
41471;DHT22;27211;51.220;5.308;2022-07-04T16:53:11;27.90;65.90
41471;DHT22;27211;51.220;5.308;2022-07-04T16:55:39;27.50;66.90
41471;DHT22;27211;51.220;5.308;2022-07-04T16:58:05;27.30;67.50
41471;DHT22;27211;51.220;5.308;2022-07-04T17:00:31;27.10;67.90
41471;DHT22;27211;51.220;5.308;2022-07-04T17:03:03;26.90;68.30
41471;DHT22;27211;51.220;5.308;2022-07-04T17:05:32;26.70;68.70
41471;DHT22;27211;51.220;5.308;2022-07-04T17:08:00;26.50;70.00
41471;DHT22;27211;51.220;5.308;2022-07-04T17:10:26;26.80;69.60